sensor_id;sensor_type;location;lat;lon;timestamp;temperature;humidity
21928;DHT22;11128;51.096;17.190;2023-10-08T00:01:34;13.70;1.00
21928;DHT22;11128;51.096;17.190;2023-10-08T00:06:35;13.50;1.00
21928;DHT22;11128;51.096;17.190;2023-10-08T00:11:38;13.50;1.00
21928;DHT22;11128;51.096;17.190;2023-10-08T00:16:41;13.40;1.00
21928;DHT22;11128;51.096;17.190;2023-10-08T00:21:42;13.40;99.90
21928;DHT22;11128;51.096;17.190;2023-10-08T00:26:45;13.40;1.00
21928;DHT22;11128;51.096;17.190;2023-10-08T00:31:47;13.50;99.90
21928;DHT22;11128;51.096;17.190;2023-10-08T00:36:51;13.60;15.20
21928;DHT22;11128;51.096;17.190;2023-10-08T00:41:53;13.60;48.10
21928;DHT22;11128;51.096;17.190;2023-10-08T00:47:00;13.70;1.00
21928;DHT22;11128;51.096;17.190;2023-10-08T00:52:03;13.40;1.00
21928;DHT22;11128;51.096;17.190;2023-10-08T00:57:10;13.20;99.90
21928;DHT22;11128;51.096;17.190;2023-10-08T01:02:12;13.20;99.90
21928;DHT22;11128;51.096;17.190;2023-10-08T01:07:17;13.10;99.90
21928;DHT22;11128;51.096;17.190;2023-10-08T01:12:21;13.10;99.10
21928;DHT22;11128;51.096;17.190;2023-10-08T01:17:25;13.10;99.90
21928;DHT22;11128;51.096;17.190;2023-10-08T01:22:28;13.00;99.90
21928;DHT22;11128;51.096;17.190;2023-10-08T01:27:31;13.00;99.90
21928;DHT22;11128;51.096;17.190;2023-10-08T01:32:35;13.00;99.90
21928;DHT22;11128;51.096;17.190;2023-10-08T01:37:37;13.10;92.30
21928;DHT22;11128;51.096;17.190;2023-10-08T01:42:41;13.00;99.90
21928;DHT22;11128;51.096;17.190;2023-10-08T01:47:42;13.20;1.00
21928;DHT22;11128;51.096;17.190;2023-10-08T01:52:44;13.20;1.00
21928;DHT22;11128;51.096;17.190;2023-10-08T01:57:49;13.10;14.30
21928;DHT22;11128;51.096;17.190;2023-10-08T02:02:52;13.00;1.00
21928;DHT22;11128;51.096;17.190;2023-10-08T02:07:59;12.70;99.90
21928;DHT22;11128;51.096;17.190;2023-10-08T02:13:00;12.70;99.90
21928;DHT22;11128;51.096;17.190;2023-10-08T02:18:03;12.60;99.90
21928;DHT22;11128;51.096;17.190;2023-10-08T02:23:05;12.60;99.90
21928;DHT22;11128;51.096;17.190;2023-10-08T02:28:07;12.60;99.90
21928;DHT22;11128;51.096;17.190;2023-10-08T02:33:13;12.60;99.90
21928;DHT22;11128;51.096;17.190;2023-10-08T02:38:16;12.70;1.00
21928;DHT22;11128;51.096;17.190;2023-10-08T02:43:18;12.60;1.00
21928;DHT22;11128;51.096;17.190;2023-10-08T02:48:21;12.60;99.90
21928;DHT22;11128;51.096;17.190;2023-10-08T02:53:22;12.40;99.90
21928;DHT22;11128;51.096;17.190;2023-10-08T02:58:27;12.40;99.90
21928;DHT22;11128;51.096;17.190;2023-10-08T03:03:29;12.40;1.00
21928;DHT22;11128;51.096;17.190;2023-10-08T03:08:30;12.40;99.90
21928;DHT22;11128;51.096;17.190;2023-10-08T03:13:37;12.50;99.90
21928;DHT22;11128;51.096;17.190;2023-10-08T03:18:40;12.60;99.90
21928;DHT22;11128;51.096;17.190;2023-10-08T03:23:51;12.50;99.90
21928;DHT22;11128;51.096;17.190;2023-10-08T03:28:52;12.50;99.90
21928;DHT22;11128;51.096;17.190;2023-10-08T03:33:58;12.50;35.50
21928;DHT22;11128;51.096;17.190;2023-10-08T03:39:00;12.60;1.00
21928;DHT22;11128;51.096;17.190;2023-10-08T03:44:11;12.50;1.00
21928;DHT22;11128;51.096;17.190;2023-10-08T03:49:18;12.60;1.00
21928;DHT22;11128;51.096;17.190;2023-10-08T03:54:22;12.60;18.10
21928;DHT22;11128;51.096;17.190;2023-10-08T03:59:36;12.60;1.00
21928;DHT22;11128;51.096;17.190;2023-10-08T04:04:44;12.60;1.00
21928;DHT22;11128;51.096;17.190;2023-10-08T04:09:52;12.60;1.00
21928;DHT22;11128;51.096;17.190;2023-10-08T04:15:07;12.60;1.00
21928;DHT22;11128;51.096;17.190;2023-10-08T04:20:15;12.60;1.00
21928;DHT22;11128;51.096;17.190;2023-10-08T04:25:34;12.60;1.00
21928;DHT22;11128;51.096;17.190;2023-10-08T04:30:35;12.60;1.00
21928;DHT22;11128;51.096;17.190;2023-10-08T04:35:44;12.60;1.00
21928;DHT22;11128;51.096;17.190;2023-10-08T04:40:58;12.50;1.00
21928;DHT22;11128;51.096;17.190;2023-10-08T04:46:03;12.50;1.00
21928;DHT22;11128;51.096;17.190;2023-10-08T04:51:20;12.50;1.00
21928;DHT22;11128;51.096;17.190;2023-10-08T04:56:24;12.50;1.00
21928;DHT22;11128;51.096;17.190;2023-10-08T05:01:25;12.40;1.00
21928;DHT22;11128;51.096;17.190;2023-10-08T05:06:39;12.50;1.00
21928;DHT22;11128;51.096;17.190;2023-10-08T05:11:52;12.50;1.00
21928;DHT22;11128;51.096;17.190;2023-10-08T05:16:56;12.50;1.00
21928;DHT22;11128;51.096;17.190;2023-10-08T05:22:17;12.40;1.00
21928;DHT22;11128;51.096;17.190;2023-10-08T05:27:19;12.40;1.00
21928;DHT22;11128;51.096;17.190;2023-10-08T05:32:39;12.40;1.00
21928;DHT22;11128;51.096;17.190;2023-10-08T05:38:00;12.30;1.00
21928;DHT22;11128;51.096;17.190;2023-10-08T05:43:14;12.30;1.00
21928;DHT22;11128;51.096;17.190;2023-10-08T05:48:36;12.30;4.90
21928;DHT22;11128;51.096;17.190;2023-10-08T05:53:46;12.30;29.20
21928;DHT22;11128;51.096;17.190;2023-10-08T05:58:50;12.30;1.00
21928;DHT22;11128;51.096;17.190;2023-10-08T06:04:12;12.30;99.90
21928;DHT22;11128;51.096;17.190;2023-10-08T06:09:42;12.30;53.40
21928;DHT22;11128;51.096;17.190;2023-10-08T06:14:51;12.30;1.00
21928;DHT22;11128;51.096;17.190;2023-10-08T06:20:08;12.30;1.00
21928;DHT22;11128;51.096;17.190;2023-10-08T06:25:17;12.40;99.90
21928;DHT22;11128;51.096;17.190;2023-10-08T06:30:24;12.40;99.90
21928;DHT22;11128;51.096;17.190;2023-10-08T06:35:30;12.30;99.90
21928;DHT22;11128;51.096;17.190;2023-10-08T06:40:35;12.30;1.00
21928;DHT22;11128;51.096;17.190;2023-10-08T06:45:46;12.30;99.90
21928;DHT22;11128;51.096;17.190;2023-10-08T06:50:50;12.20;99.90
21928;DHT22;11128;51.096;17.190;2023-10-08T06:55:51;12.10;99.90
21928;DHT22;11128;51.096;17.190;2023-10-08T07:00:58;12.10;1.00
21928;DHT22;11128;51.096;17.190;2023-10-08T07:06:00;12.20;99.90
21928;DHT22;11128;51.096;17.190;2023-10-08T07:11:04;12.30;99.90
21928;DHT22;11128;51.096;17.190;2023-10-08T07:16:08;12.30;1.00
21928;DHT22;11128;51.096;17.190;2023-10-08T07:21:12;12.30;1.00
21928;DHT22;11128;51.096;17.190;2023-10-08T07:26:13;12.20;1.00
21928;DHT22;11128;51.096;17.190;2023-10-08T07:31:23;12.40;1.00
21928;DHT22;11128;51.096;17.190;2023-10-08T07:36:26;12.50;99.90
21928;DHT22;11128;51.096;17.190;2023-10-08T07:41:27;12.40;1.00
21928;DHT22;11128;51.096;17.190;2023-10-08T07:46:29;12.40;99.90
21928;DHT22;11128;51.096;17.190;2023-10-08T07:51:30;12.60;52.90
21928;DHT22;11128;51.096;17.190;2023-10-08T07:56:31;12.70;1.00
21928;DHT22;11128;51.096;17.190;2023-10-08T08:01:34;12.90;1.00
21928;DHT22;11128;51.096;17.190;2023-10-08T08:06:36;13.00;1.00
21928;DHT22;11128;51.096;17.190;2023-10-08T08:11:38;12.90;99.90
21928;DHT22;11128;51.096;17.190;2023-10-08T08:16:39;12.90;99.90
21928;DHT22;11128;51.096;17.190;2023-10-08T08:21:42;13.00;99.90
21928;DHT22;11128;51.096;17.190;2023-10-08T08:26:46;13.10;99.90
21928;DHT22;11128;51.096;17.190;2023-10-08T08:32:03;13.10;99.90
21928;DHT22;11128;51.096;17.190;2023-10-08T08:37:05;13.30;99.90
21928;DHT22;11128;51.096;17.190;2023-10-08T08:42:08;13.40;99.90
21928;DHT22;11128;51.096;17.190;2023-10-08T08:47:11;13.70;99.90
21928;DHT22;11128;51.096;17.190;2023-10-08T08:52:15;13.60;60.70
21928;DHT22;11128;51.096;17.190;2023-10-08T08:57:17;13.50;17.90
21928;DHT22;11128;51.096;17.190;2023-10-08T09:02:19;13.60;7.50
21928;DHT22;11128;51.096;17.190;2023-10-08T09:07:21;13.70;1.00
21928;DHT22;11128;51.096;17.190;2023-10-08T09:12:26;13.90;1.00
21928;DHT22;11128;51.096;17.190;2023-10-08T09:17:28;14.10;1.00
21928;DHT22;11128;51.096;17.190;2023-10-08T09:22:30;14.30;1.00
21928;DHT22;11128;51.096;17.190;2023-10-08T09:27:33;14.80;1.00
21928;DHT22;11128;51.096;17.190;2023-10-08T09:32:34;15.00;1.00
21928;DHT22;11128;51.096;17.190;2023-10-08T09:37:41;15.30;1.00
21928;DHT22;11128;51.096;17.190;2023-10-08T09:42:44;15.20;1.00
21928;DHT22;11128;51.096;17.190;2023-10-08T09:47:52;15.30;1.00
21928;DHT22;11128;51.096;17.190;2023-10-08T09:58:25;15.40;1.00
21928;DHT22;11128;51.096;17.190;2023-10-08T10:03:27;15.30;1.00
21928;DHT22;11128;51.096;17.190;2023-10-08T10:08:29;15.60;1.00
21928;DHT22;11128;51.096;17.190;2023-10-08T10:13:42;15.60;1.00
21928;DHT22;11128;51.096;17.190;2023-10-08T10:18:48;15.80;1.00
21928;DHT22;11128;51.096;17.190;2023-10-08T10:23:49;16.20;1.00
21928;DHT22;11128;51.096;17.190;2023-10-08T10:34:23;16.50;1.00
21928;DHT22;11128;51.096;17.190;2023-10-08T10:39:28;16.60;1.00
21928;DHT22;11128;51.096;17.190;2023-10-08T10:44:33;16.90;1.00
21928;DHT22;11128;51.096;17.190;2023-10-08T10:49:39;17.10;1.00
21928;DHT22;11128;51.096;17.190;2023-10-08T10:54:53;17.00;1.00
21928;DHT22;11128;51.096;17.190;2023-10-08T11:00:04;17.10;1.00
21928;DHT22;11128;51.096;17.190;2023-10-08T11:05:40;17.10;1.00
21928;DHT22;11128;51.096;17.190;2023-10-08T11:10:49;17.30;1.00
21928;DHT22;11128;51.096;17.190;2023-10-08T11:15:52;17.30;1.00
21928;DHT22;11128;51.096;17.190;2023-10-08T11:21:06;17.30;1.00
21928;DHT22;11128;51.096;17.190;2023-10-08T11:26:15;17.50;1.00
21928;DHT22;11128;51.096;17.190;2023-10-08T11:31:18;17.40;1.00
21928;DHT22;11128;51.096;17.190;2023-10-08T11:36:23;17.10;1.00
21928;DHT22;11128;51.096;17.190;2023-10-08T11:41:30;16.90;1.00
21928;DHT22;11128;51.096;17.190;2023-10-08T11:46:36;16.90;1.00
21928;DHT22;11128;51.096;17.190;2023-10-08T11:51:40;17.10;1.00
21928;DHT22;11128;51.096;17.190;2023-10-08T11:56:45;17.10;1.00
21928;DHT22;11128;51.096;17.190;2023-10-08T12:01:46;17.00;1.00
21928;DHT22;11128;51.096;17.190;2023-10-08T12:06:50;17.30;1.00
21928;DHT22;11128;51.096;17.190;2023-10-08T12:11:54;17.30;1.00
21928;DHT22;11128;51.096;17.190;2023-10-08T12:16:55;17.20;1.00
21928;DHT22;11128;51.096;17.190;2023-10-08T12:21:57;17.10;1.00
21928;DHT22;11128;51.096;17.190;2023-10-08T12:26:58;17.00;1.00
21928;DHT22;11128;51.096;17.190;2023-10-08T12:32:00;16.60;1.00
21928;DHT22;11128;51.096;17.190;2023-10-08T12:37:04;16.20;1.00
21928;DHT22;11128;51.096;17.190;2023-10-08T12:42:06;16.20;1.00
21928;DHT22;11128;51.096;17.190;2023-10-08T12:47:07;16.50;1.00
21928;DHT22;11128;51.096;17.190;2023-10-08T12:52:09;16.90;1.00
21928;DHT22;11128;51.096;17.190;2023-10-08T12:57:10;17.10;1.00
21928;DHT22;11128;51.096;17.190;2023-10-08T13:02:12;17.20;1.00
21928;DHT22;11128;51.096;17.190;2023-10-08T13:07:13;17.10;1.00
21928;DHT22;11128;51.096;17.190;2023-10-08T13:12:15;17.00;1.00
21928;DHT22;11128;51.096;17.190;2023-10-08T13:17:16;16.80;1.00
21928;DHT22;11128;51.096;17.190;2023-10-08T13:22:19;16.90;1.00
21928;DHT22;11128;51.096;17.190;2023-10-08T13:27:21;16.90;1.00
21928;DHT22;11128;51.096;17.190;2023-10-08T13:32:25;16.70;1.00
21928;DHT22;11128;51.096;17.190;2023-10-08T13:37:26;16.70;1.00
21928;DHT22;11128;51.096;17.190;2023-10-08T13:42:28;16.60;1.00
21928;DHT22;11128;51.096;17.190;2023-10-08T13:47:30;16.90;1.00
21928;DHT22;11128;51.096;17.190;2023-10-08T13:52:35;16.90;1.00
21928;DHT22;11128;51.096;17.190;2023-10-08T13:57:40;16.90;1.00
21928;DHT22;11128;51.096;17.190;2023-10-08T14:02:44;16.70;1.00
21928;DHT22;11128;51.096;17.190;2023-10-08T14:07:47;16.40;1.00
21928;DHT22;11128;51.096;17.190;2023-10-08T14:12:50;16.20;1.00
21928;DHT22;11128;51.096;17.190;2023-10-08T14:17:52;16.00;1.00
21928;DHT22;11128;51.096;17.190;2023-10-08T14:22:56;15.90;1.00
21928;DHT22;11128;51.096;17.190;2023-10-08T14:28:02;15.80;1.00
21928;DHT22;11128;51.096;17.190;2023-10-08T14:33:06;15.60;1.00
21928;DHT22;11128;51.096;17.190;2023-10-08T14:38:10;15.50;1.00
21928;DHT22;11128;51.096;17.190;2023-10-08T14:43:30;15.40;1.00
21928;DHT22;11128;51.096;17.190;2023-10-08T14:48:35;15.40;1.00
21928;DHT22;11128;51.096;17.190;2023-10-08T14:53:37;15.40;1.00
21928;DHT22;11128;51.096;17.190;2023-10-08T14:58:39;15.40;1.00
21928;DHT22;11128;51.096;17.190;2023-10-08T15:03:42;15.30;1.00
21928;DHT22;11128;51.096;17.190;2023-10-08T15:08:43;15.20;1.00
21928;DHT22;11128;51.096;17.190;2023-10-08T15:13:45;15.10;1.00
21928;DHT22;11128;51.096;17.190;2023-10-08T15:18:49;15.00;1.00
21928;DHT22;11128;51.096;17.190;2023-10-08T15:23:55;14.80;1.00
21928;DHT22;11128;51.096;17.190;2023-10-08T15:28:59;14.70;1.00
21928;DHT22;11128;51.096;17.190;2023-10-08T15:34:03;14.60;1.00
21928;DHT22;11128;51.096;17.190;2023-10-08T15:39:06;14.50;1.00
21928;DHT22;11128;51.096;17.190;2023-10-08T15:44:11;14.40;1.00
21928;DHT22;11128;51.096;17.190;2023-10-08T15:49:12;14.30;1.00
21928;DHT22;11128;51.096;17.190;2023-10-08T15:54:14;14.30;1.00
21928;DHT22;11128;51.096;17.190;2023-10-08T15:59:19;14.20;1.00
21928;DHT22;11128;51.096;17.190;2023-10-08T16:04:20;14.10;1.00
21928;DHT22;11128;51.096;17.190;2023-10-08T16:09:25;13.90;1.00
21928;DHT22;11128;51.096;17.190;2023-10-08T16:14:29;13.80;1.00
21928;DHT22;11128;51.096;17.190;2023-10-08T16:19:30;13.60;1.00
21928;DHT22;11128;51.096;17.190;2023-10-08T16:24:33;13.60;1.00
21928;DHT22;11128;51.096;17.190;2023-10-08T16:29:35;13.30;1.00
21928;DHT22;11128;51.096;17.190;2023-10-08T16:34:37;13.30;1.00
21928;DHT22;11128;51.096;17.190;2023-10-08T16:39:39;13.00;1.00
21928;DHT22;11128;51.096;17.190;2023-10-08T16:44:40;12.90;1.00
21928;DHT22;11128;51.096;17.190;2023-10-08T16:49:42;12.80;1.00
21928;DHT22;11128;51.096;17.190;2023-10-08T16:54:43;12.50;1.00
21928;DHT22;11128;51.096;17.190;2023-10-08T16:59:45;12.40;1.00
21928;DHT22;11128;51.096;17.190;2023-10-08T17:04:47;12.40;1.00
21928;DHT22;11128;51.096;17.190;2023-10-08T17:09:48;12.30;1.00
21928;DHT22;11128;51.096;17.190;2023-10-08T17:14:50;12.20;1.00
21928;DHT22;11128;51.096;17.190;2023-10-08T17:19:52;12.10;1.00
21928;DHT22;11128;51.096;17.190;2023-10-08T17:24:54;12.10;1.00
21928;DHT22;11128;51.096;17.190;2023-10-08T17:29:58;12.20;1.00
21928;DHT22;11128;51.096;17.190;2023-10-08T17:35:01;12.10;1.00
21928;DHT22;11128;51.096;17.190;2023-10-08T17:40:06;12.10;1.00
21928;DHT22;11128;51.096;17.190;2023-10-08T17:45:14;12.00;1.00
21928;DHT22;11128;51.096;17.190;2023-10-08T17:50:15;12.00;1.00
21928;DHT22;11128;51.096;17.190;2023-10-08T17:55:17;12.00;1.00
21928;DHT22;11128;51.096;17.190;2023-10-08T18:00:21;11.90;1.00
21928;DHT22;11128;51.096;17.190;2023-10-08T18:05:25;11.90;1.00
21928;DHT22;11128;51.096;17.190;2023-10-08T18:10:32;11.90;1.00
21928;DHT22;11128;51.096;17.190;2023-10-08T18:15:37;11.90;1.00
21928;DHT22;11128;51.096;17.190;2023-10-08T18:20:40;11.80;1.00
21928;DHT22;11128;51.096;17.190;2023-10-08T18:25:46;11.70;1.00
21928;DHT22;11128;51.096;17.190;2023-10-08T18:30:47;11.70;1.00
21928;DHT22;11128;51.096;17.190;2023-10-08T18:35:51;11.70;1.00
21928;DHT22;11128;51.096;17.190;2023-10-08T18:40:52;11.60;1.00
21928;DHT22;11128;51.096;17.190;2023-10-08T18:45:53;11.50;1.00
21928;DHT22;11128;51.096;17.190;2023-10-08T18:51:07;11.40;1.00
21928;DHT22;11128;51.096;17.190;2023-10-08T18:56:11;11.40;1.00
21928;DHT22;11128;51.096;17.190;2023-10-08T19:01:13;11.40;1.00
21928;DHT22;11128;51.096;17.190;2023-10-08T19:06:15;11.40;1.00
21928;DHT22;11128;51.096;17.190;2023-10-08T19:11:17;11.30;1.00
21928;DHT22;11128;51.096;17.190;2023-10-08T19:16:19;11.20;1.00
21928;DHT22;11128;51.096;17.190;2023-10-08T19:21:21;11.10;26.70
21928;DHT22;11128;51.096;17.190;2023-10-08T19:26:28;11.20;19.00
21928;DHT22;11128;51.096;17.190;2023-10-08T19:31:29;11.10;18.20
21928;DHT22;11128;51.096;17.190;2023-10-08T19:36:31;11.20;16.00
21928;DHT22;11128;51.096;17.190;2023-10-08T19:41:33;11.10;22.70
21928;DHT22;11128;51.096;17.190;2023-10-08T19:46:34;11.20;29.70
21928;DHT22;11128;51.096;17.190;2023-10-08T19:51:35;11.10;56.10
21928;DHT22;11128;51.096;17.190;2023-10-08T19:56:37;11.00;90.30
21928;DHT22;11128;51.096;17.190;2023-10-08T20:01:38;11.00;99.90
21928;DHT22;11128;51.096;17.190;2023-10-08T20:06:39;11.00;98.90
21928;DHT22;11128;51.096;17.190;2023-10-08T20:11:41;11.10;96.80
21928;DHT22;11128;51.096;17.190;2023-10-08T20:16:42;11.10;99.90
21928;DHT22;11128;51.096;17.190;2023-10-08T20:21:43;10.90;99.90
21928;DHT22;11128;51.096;17.190;2023-10-08T20:26:46;10.90;99.90
21928;DHT22;11128;51.096;17.190;2023-10-08T20:31:47;10.90;99.90
21928;DHT22;11128;51.096;17.190;2023-10-08T20:36:50;10.90;99.90
21928;DHT22;11128;51.096;17.190;2023-10-08T20:41:51;10.90;99.90
21928;DHT22;11128;51.096;17.190;2023-10-08T20:46:53;10.90;99.90
21928;DHT22;11128;51.096;17.190;2023-10-08T20:51:55;10.70;99.90
21928;DHT22;11128;51.096;17.190;2023-10-08T20:56:56;10.70;99.90
21928;DHT22;11128;51.096;17.190;2023-10-08T21:01:58;10.60;99.90
21928;DHT22;11128;51.096;17.190;2023-10-08T21:06:59;10.60;99.90
21928;DHT22;11128;51.096;17.190;2023-10-08T21:12:01;10.50;99.90
21928;DHT22;11128;51.096;17.190;2023-10-08T21:17:06;10.50;99.90
21928;DHT22;11128;51.096;17.190;2023-10-08T21:22:07;10.50;99.90
21928;DHT22;11128;51.096;17.190;2023-10-08T21:27:09;10.40;99.90
21928;DHT22;11128;51.096;17.190;2023-10-08T21:32:10;10.40;99.90
21928;DHT22;11128;51.096;17.190;2023-10-08T21:37:12;10.30;99.90
21928;DHT22;11128;51.096;17.190;2023-10-08T21:42:13;10.40;99.90
21928;DHT22;11128;51.096;17.190;2023-10-08T21:47:15;10.30;99.90
21928;DHT22;11128;51.096;17.190;2023-10-08T21:52:16;10.20;99.90
21928;DHT22;11128;51.096;17.190;2023-10-08T21:57:18;10.10;99.90
21928;DHT22;11128;51.096;17.190;2023-10-08T22:02:20;10.00;99.90
21928;DHT22;11128;51.096;17.190;2023-10-08T22:07:22;10.10;99.90
21928;DHT22;11128;51.096;17.190;2023-10-08T22:12:23;10.00;99.90
21928;DHT22;11128;51.096;17.190;2023-10-08T22:17:28;9.80;99.90
21928;DHT22;11128;51.096;17.190;2023-10-08T22:22:31;9.80;99.90
21928;DHT22;11128;51.096;17.190;2023-10-08T22:27:34;9.90;99.90
21928;DHT22;11128;51.096;17.190;2023-10-08T22:32:39;9.70;99.90
21928;DHT22;11128;51.096;17.190;2023-10-08T22:37:41;9.60;99.90
21928;DHT22;11128;51.096;17.190;2023-10-08T22:43:01;9.60;99.90
21928;DHT22;11128;51.096;17.190;2023-10-08T22:48:04;9.50;99.90
21928;DHT22;11128;51.096;17.190;2023-10-08T22:53:07;9.60;99.90
21928;DHT22;11128;51.096;17.190;2023-10-08T22:58:09;9.60;99.90
21928;DHT22;11128;51.096;17.190;2023-10-08T23:03:10;9.70;99.90
21928;DHT22;11128;51.096;17.190;2023-10-08T23:08:12;9.60;99.90
21928;DHT22;11128;51.096;17.190;2023-10-08T23:13:13;9.60;99.90
21928;DHT22;11128;51.096;17.190;2023-10-08T23:18:16;9.70;99.90
21928;DHT22;11128;51.096;17.190;2023-10-08T23:23:24;9.60;99.90
21928;DHT22;11128;51.096;17.190;2023-10-08T23:28:27;9.60;99.90
21928;DHT22;11128;51.096;17.190;2023-10-08T23:33:31;9.60;99.90
21928;DHT22;11128;51.096;17.190;2023-10-08T23:38:36;9.60;99.90
21928;DHT22;11128;51.096;17.190;2023-10-08T23:48:54;9.50;1.00
21928;DHT22;11128;51.096;17.190;2023-10-08T23:53:56;9.40;1.00
21928;DHT22;11128;51.096;17.190;2023-10-08T23:59:02;9.50;1.00
